createdAt,value
2023-10-04T00:01:05.779Z,81.97
2023-10-04T00:03:48.539Z,82.34
2023-10-04T00:06:18.782Z,83.09
2023-10-04T00:08:46.765Z,84.03
2023-10-04T00:11:16.296Z,83.79
2023-10-04T00:13:45.883Z,84.15
2023-10-04T00:16:14.623Z,84.45
2023-10-04T00:18:42.992Z,84.47
2023-10-04T00:21:11.957Z,85.48
2023-10-04T00:23:40.952Z,85.04
2023-10-04T00:26:09.606Z,85.35
2023-10-04T00:28:39.650Z,86.39
2023-10-04T00:31:07.740Z,87.49
2023-10-04T00:33:36.809Z,87.58
2023-10-04T00:36:05.447Z,87.98
2023-10-04T00:38:33.442Z,87.72
2023-10-04T00:41:01.714Z,88.27
2023-10-04T00:43:29.614Z,88.35
2023-10-04T00:45:57.453Z,87.78
2023-10-04T00:48:26.521Z,87.88
2023-10-04T00:50:54.821Z,87.87
2023-10-04T00:53:24.286Z,87.96
2023-10-04T00:55:54.572Z,88.40
2023-10-04T00:58:22.812Z,88.33
2023-10-04T01:00:50.981Z,88.72
2023-10-04T01:03:25.832Z,88.99
2023-10-04T01:05:55.843Z,88.89
2023-10-04T01:08:24.821Z,88.90
2023-10-04T01:10:55.855Z,89.24
2023-10-04T01:13:23.978Z,89.46
2023-10-04T01:15:56.406Z,89.27
2023-10-04T01:18:24.725Z,89.14
2023-10-04T01:20:53.322Z,89.69
2023-10-04T01:23:21.552Z,89.71
2023-10-04T01:25:49.535Z,88.98
2023-10-04T01:28:19.793Z,88.93
2023-10-04T01:30:52.472Z,88.68
2023-10-04T01:33:20.904Z,88.85
2023-10-04T01:35:55.165Z,88.53
2023-10-04T01:38:28.913Z,88.58
2023-10-04T01:40:57.989Z,88.67
2023-10-04T01:43:27.035Z,88.48
2023-10-04T01:45:59.449Z,88.58
2023-10-04T01:48:30.033Z,88.40
2023-10-04T01:50:58.158Z,88.66
2023-10-04T01:53:27.106Z,88.53
2023-10-04T01:55:58.009Z,88.15
2023-10-04T01:58:27.114Z,87.98
2023-10-04T02:00:57.213Z,88.12
2023-10-04T02:03:26.025Z,87.89
2023-10-04T02:05:58.444Z,88.20
2023-10-04T02:08:27.460Z,88.23
2023-10-04T02:10:56.512Z,88.12
2023-10-04T02:13:27.231Z,88.17
2023-10-04T02:15:56.048Z,88.00
2023-10-04T02:18:24.229Z,87.76
2023-10-04T02:20:54.961Z,87.70
2023-10-04T02:23:24.669Z,87.87
2023-10-04T02:25:53.630Z,87.82
2023-10-04T02:28:25.628Z,88.00
2023-10-04T02:30:57.694Z,87.90
2023-10-04T02:33:32.979Z,88.08
2023-10-04T02:36:08.933Z,87.91
2023-10-04T02:38:37.953Z,87.75
2023-10-04T02:41:11.835Z,87.81
2023-10-04T02:43:39.824Z,87.77
2023-10-04T02:46:07.773Z,86.99
2023-10-04T02:48:37.247Z,87.04
2023-10-04T02:51:06.530Z,86.78
2023-10-04T02:53:35.837Z,86.68
2023-10-04T02:56:11.017Z,86.38
2023-10-04T02:58:38.986Z,86.38
2023-10-04T03:01:06.993Z,86.58
2023-10-04T03:03:37.183Z,86.54
2023-10-04T03:06:06.030Z,86.51
2023-10-04T03:08:34.333Z,86.74
2023-10-04T03:11:05.446Z,86.19
2023-10-04T03:13:33.741Z,86.27
2023-10-04T03:16:02.550Z,86.35
2023-10-04T03:18:30.559Z,86.47
2023-10-04T03:21:01.589Z,86.58
2023-10-04T03:23:34.314Z,86.57
2023-10-04T03:26:05.649Z,86.53
2023-10-04T03:28:39.098Z,86.35
2023-10-04T03:31:17.606Z,86.06
2023-10-04T03:33:50.906Z,85.70
2023-10-04T03:36:22.698Z,85.51
2023-10-04T03:38:50.927Z,85.81
2023-10-04T03:41:20.705Z,85.56
2023-10-04T03:43:48.967Z,85.88
2023-10-04T03:46:20.292Z,86.09
2023-10-04T03:48:50.505Z,85.69
2023-10-04T03:51:22.718Z,85.48
2023-10-04T03:53:55.391Z,85.63
2023-10-04T03:56:26.471Z,85.59
2023-10-04T03:58:55.766Z,85.73
2023-10-04T04:01:27.263Z,85.79
2023-10-04T04:03:55.467Z,85.58
2023-10-04T04:06:25.318Z,85.96
2023-10-04T04:08:53.232Z,85.71
2023-10-04T04:11:21.017Z,85.48
2023-10-04T04:13:49.256Z,85.51
2023-10-04T04:16:19.296Z,85.56
2023-10-04T04:18:56.057Z,85.86
2023-10-04T04:21:29.821Z,85.60
2023-10-04T04:23:57.825Z,85.78
2023-10-04T04:26:29.069Z,85.57
2023-10-04T04:28:56.916Z,85.83
2023-10-04T04:31:24.817Z,85.79
2023-10-04T04:33:54.554Z,85.49
2023-10-04T04:36:29.317Z,85.43
2023-10-04T04:38:57.310Z,85.14
2023-10-04T04:41:27.937Z,84.98
2023-10-04T04:43:56.584Z,84.91
2023-10-04T04:46:25.048Z,85.08
2023-10-04T04:48:56.421Z,85.34
2023-10-04T04:51:24.447Z,85.19
2023-10-04T04:53:52.789Z,85.33
2023-10-04T04:56:23.095Z,85.08
2023-10-04T04:58:53.461Z,85.10
2023-10-04T05:01:22.769Z,85.03
2023-10-04T05:03:53.798Z,85.15
2023-10-04T05:06:24.666Z,85.05
2023-10-04T05:08:56.030Z,84.95
2023-10-04T05:11:27.318Z,85.06
2023-10-04T05:13:57.035Z,84.87
2023-10-04T05:16:26.739Z,85.33
2023-10-04T05:18:55.648Z,85.01
2023-10-04T05:21:23.931Z,84.82
2023-10-04T05:23:57.009Z,85.01
2023-10-04T05:26:24.973Z,84.87
2023-10-04T05:28:54.259Z,85.12
2023-10-04T05:31:22.370Z,84.98
2023-10-04T05:33:50.364Z,84.95
2023-10-04T05:36:19.251Z,84.86
2023-10-04T05:38:47.249Z,84.57
2023-10-04T05:41:15.767Z,84.61
2023-10-04T05:43:44.534Z,84.52
2023-10-04T05:46:13.738Z,84.37
2023-10-04T05:48:41.748Z,84.20
2023-10-04T05:51:10.015Z,83.94
2023-10-04T05:53:39.522Z,83.93
2023-10-04T05:56:07.663Z,83.76
2023-10-04T05:58:36.498Z,83.05
2023-10-04T06:01:04.428Z,83.06
2023-10-04T06:03:34.411Z,82.72
2023-10-04T06:06:02.615Z,82.69
2023-10-04T06:08:30.535Z,82.41
2023-10-04T06:10:58.437Z,82.18
2023-10-04T06:13:27.578Z,82.30
2023-10-04T06:15:57.203Z,82.11
2023-10-04T06:18:30.930Z,82.17
2023-10-04T06:21:02.982Z,82.13
2023-10-04T06:23:33.512Z,81.91
2023-10-04T06:26:01.590Z,81.17
2023-10-04T06:28:30.453Z,81.25
2023-10-04T06:30:58.727Z,81.18
2023-10-04T06:33:26.976Z,80.85
2023-10-04T06:35:55.425Z,80.39
2023-10-04T06:38:23.364Z,80.08
2023-10-04T06:40:51.221Z,79.94
2023-10-04T06:43:19.509Z,79.49
2023-10-04T06:45:47.488Z,79.15
2023-10-04T06:48:15.741Z,78.65
2023-10-04T06:50:45.746Z,79.23
2023-10-04T06:53:14.313Z,79.01
2023-10-04T06:55:42.942Z,78.50
2023-10-04T06:58:13.758Z,78.25
2023-10-04T07:00:43.425Z,77.98
2023-10-04T07:03:12.314Z,77.81
2023-10-04T07:05:42.472Z,77.62
2023-10-04T07:08:17.421Z,77.75
2023-10-04T07:10:46.684Z,77.38
2023-10-04T07:13:15.669Z,76.91
2023-10-04T07:15:46.062Z,76.36
2023-10-04T07:18:15.141Z,76.59
2023-10-04T07:20:43.658Z,76.18
2023-10-04T07:23:12.911Z,75.88
2023-10-04T07:25:48.670Z,75.72
2023-10-04T07:28:16.750Z,75.91
2023-10-04T07:30:45.645Z,76.13
2023-10-04T07:33:13.904Z,75.54
2023-10-04T07:35:41.980Z,74.73
2023-10-04T07:38:09.772Z,74.07
2023-10-04T07:40:38.643Z,73.78
2023-10-04T07:43:08.672Z,73.89
2023-10-04T07:45:36.920Z,73.16
2023-10-04T07:48:05.530Z,72.96
2023-10-04T07:50:34.243Z,72.96
2023-10-04T07:53:06.740Z,72.92
2023-10-04T07:55:35.648Z,72.93
2023-10-04T07:58:07.738Z,72.42
2023-10-04T08:00:38.189Z,72.11
2023-10-04T08:03:08.837Z,72.09
2023-10-04T08:05:38.290Z,72.07
2023-10-04T08:08:07.675Z,72.10
2023-10-04T08:10:37.803Z,71.66
2023-10-04T08:13:07.381Z,71.60
2023-10-04T08:15:38.356Z,71.60
2023-10-04T08:18:07.166Z,71.27
2023-10-04T08:20:38.270Z,71.67
2023-10-04T08:23:06.997Z,71.76
2023-10-04T08:25:36.789Z,71.29
2023-10-04T08:28:11.529Z,71.54
2023-10-04T08:30:40.347Z,70.73
2023-10-04T08:33:09.863Z,71.10
2023-10-04T08:35:38.279Z,71.48
2023-10-04T08:38:07.346Z,71.30
2023-10-04T08:40:43.762Z,71.67
2023-10-04T08:43:12.719Z,71.85
2023-10-04T08:45:44.449Z,71.48
2023-10-04T08:48:12.685Z,71.71
2023-10-04T08:50:40.789Z,72.00
2023-10-04T08:53:19.985Z,71.87
2023-10-04T08:55:53.199Z,72.04
2023-10-04T08:58:21.828Z,71.63
2023-10-04T09:00:52.495Z,72.02
2023-10-04T09:03:24.428Z,71.75
2023-10-04T09:05:55.599Z,71.48
2023-10-04T09:08:26.467Z,71.60
2023-10-04T09:10:57.343Z,71.52
2023-10-04T09:13:25.819Z,71.56
2023-10-04T09:15:53.956Z,71.53
2023-10-04T09:18:29.748Z,71.89
2023-10-04T09:20:57.935Z,72.20
2023-10-04T09:23:25.891Z,71.80
2023-10-04T09:25:57.309Z,71.51
2023-10-04T09:28:39.691Z,71.49
2023-10-04T09:31:12.139Z,70.88
2023-10-04T09:33:40.612Z,70.70
2023-10-04T09:36:08.514Z,70.55
2023-10-04T09:38:37.269Z,70.64
2023-10-04T09:41:05.201Z,70.52
2023-10-04T09:43:37.908Z,70.14
2023-10-04T09:46:12.144Z,70.09
2023-10-04T09:48:46.733Z,69.97
2023-10-04T09:51:15.971Z,70.06
2023-10-04T09:53:45.206Z,70.00
2023-10-04T09:56:17.925Z,70.18
2023-10-04T09:58:52.914Z,70.58
2023-10-04T10:01:22.390Z,70.17
2023-10-04T10:03:57.119Z,70.21
2023-10-04T10:06:28.987Z,70.57
2023-10-04T10:09:01.827Z,70.39
2023-10-04T10:11:31.719Z,70.53
2023-10-04T10:14:03.493Z,70.43
2023-10-04T10:16:35.273Z,70.48
2023-10-04T10:19:05.269Z,70.33
2023-10-04T10:22:18.154Z,70.45
2023-10-04T10:24:52.629Z,70.24
2023-10-04T10:27:21.367Z,70.24
2023-10-04T10:29:49.659Z,69.88
2023-10-04T10:32:23.950Z,69.90
2023-10-04T10:34:53.996Z,69.94
2023-10-04T10:37:23.808Z,69.85
2023-10-04T10:39:56.607Z,69.81
2023-10-04T10:42:24.973Z,69.88
2023-10-04T10:45:27.006Z,69.76
2023-10-04T10:48:00.525Z,70.08
2023-10-04T10:50:36.411Z,70.11
2023-10-04T10:53:10.385Z,69.89
2023-10-04T10:55:43.215Z,69.27
2023-10-04T10:58:12.160Z,69.45
2023-10-04T11:00:40.647Z,70.00
2023-10-04T11:03:12.618Z,69.77
2023-10-04T11:05:42.038Z,69.85
2023-10-04T11:08:13.954Z,70.06
2023-10-04T11:10:42.632Z,70.13
2023-10-04T11:13:16.102Z,70.34
2023-10-04T11:15:45.080Z,70.20
2023-10-04T11:18:15.164Z,70.32
2023-10-04T11:20:43.428Z,70.39
2023-10-04T11:23:12.324Z,70.34
2023-10-04T11:25:40.317Z,70.22
2023-10-04T11:28:08.881Z,70.54
2023-10-04T11:30:37.767Z,70.33
2023-10-04T11:33:07.143Z,70.07
2023-10-04T11:35:35.962Z,70.54
2023-10-04T11:38:14.187Z,70.48
2023-10-04T11:40:50.985Z,70.46
2023-10-04T11:43:19.446Z,70.27
2023-10-04T11:45:48.878Z,70.29
2023-10-04T11:48:22.933Z,70.41
2023-10-04T11:50:55.299Z,70.12
2023-10-04T11:53:34.769Z,70.05
2023-10-04T11:56:08.666Z,69.84
2023-10-04T11:58:50.755Z,69.43
2023-10-04T12:01:21.460Z,69.46
2023-10-04T12:03:55.132Z,69.76
2023-10-04T12:06:25.680Z,69.54
2023-10-04T12:08:55.891Z,69.35
2023-10-04T12:11:24.451Z,69.34
2023-10-04T12:13:53.356Z,69.66
2023-10-04T12:16:21.890Z,69.34
2023-10-04T12:18:49.941Z,69.45
2023-10-04T12:21:19.321Z,69.41
2023-10-04T12:23:47.256Z,69.66
2023-10-04T12:26:18.372Z,69.89
2023-10-04T12:28:46.457Z,69.93
2023-10-04T12:31:14.732Z,70.21
2023-10-04T12:33:43.135Z,70.20
2023-10-04T12:36:11.004Z,70.36
2023-10-04T12:38:38.961Z,70.39
2023-10-04T12:41:06.865Z,70.41
2023-10-04T12:43:34.964Z,70.37
2023-10-04T12:46:02.915Z,70.45
2023-10-04T12:48:32.334Z,70.46
2023-10-04T12:51:00.255Z,70.45
2023-10-04T12:53:28.999Z,70.10
2023-10-04T12:55:56.968Z,69.57
2023-10-04T12:58:25.036Z,69.27
2023-10-04T13:00:53.794Z,69.54
2023-10-04T13:03:21.806Z,69.51
2023-10-04T13:05:51.222Z,69.35
2023-10-04T13:08:22.566Z,69.48
2023-10-04T13:10:50.939Z,69.50
2023-10-04T13:13:19.508Z,69.61
2023-10-04T13:15:49.353Z,70.06
2023-10-04T13:18:22.243Z,70.34
2023-10-04T13:20:51.911Z,70.77
2023-10-04T13:23:20.294Z,71.11
2023-10-04T13:25:50.510Z,71.24
2023-10-04T13:28:18.476Z,71.50
2023-10-04T13:30:47.015Z,72.02
2023-10-04T13:33:16.563Z,71.98
2023-10-04T13:35:44.585Z,72.27
2023-10-04T13:38:12.489Z,72.24
2023-10-04T13:40:40.400Z,72.67
2023-10-04T13:43:08.688Z,72.37
2023-10-04T13:45:36.907Z,72.65
2023-10-04T13:48:10.892Z,72.46
2023-10-04T13:50:44.225Z,72.09
2023-10-04T13:53:12.189Z,71.89
2023-10-04T13:55:41.049Z,71.48
2023-10-04T13:58:15.796Z,71.33
2023-10-04T14:00:45.840Z,71.23
2023-10-04T14:03:14.232Z,70.85
2023-10-04T14:05:42.562Z,70.91
2023-10-04T14:08:10.870Z,71.25
2023-10-04T14:10:39.084Z,70.69
2023-10-04T14:13:08.014Z,71.04
2023-10-04T14:15:36.017Z,70.75
2023-10-04T14:18:06.184Z,70.60
2023-10-04T14:20:34.311Z,70.27
2023-10-04T14:23:08.789Z,69.92
2023-10-04T14:25:36.970Z,69.70
2023-10-04T14:28:05.762Z,69.59
2023-10-04T14:30:33.779Z,68.98
2023-10-04T14:33:01.874Z,68.93
2023-10-04T14:35:30.063Z,68.47
2023-10-04T14:37:57.930Z,68.75
2023-10-04T14:40:28.836Z,68.62
2023-10-04T14:42:58.605Z,68.64
2023-10-04T14:45:27.021Z,68.87
2023-10-04T14:47:55.291Z,68.53
2023-10-04T14:50:23.317Z,68.57
2023-10-04T14:52:51.583Z,68.47
2023-10-04T14:55:20.760Z,68.69
2023-10-04T14:57:48.974Z,68.78
2023-10-04T15:00:26.215Z,68.57
2023-10-04T15:02:57.949Z,68.61
2023-10-04T15:05:26.554Z,68.86
2023-10-04T15:07:54.841Z,68.46
2023-10-04T15:10:23.623Z,68.29
2023-10-04T15:12:51.745Z,68.37
2023-10-04T15:15:19.724Z,68.45
2023-10-04T15:17:48.347Z,68.80
2023-10-04T15:20:18.698Z,68.76
2023-10-04T15:22:50.095Z,68.90
2023-10-04T15:25:18.916Z,68.95
2023-10-04T15:27:51.683Z,68.86
2023-10-04T15:30:23.987Z,69.16
2023-10-04T15:32:54.472Z,69.25
2023-10-04T15:35:26.912Z,68.92
2023-10-04T15:37:58.963Z,68.76
2023-10-04T15:40:31.816Z,68.93
2023-10-04T15:43:03.018Z,68.87
2023-10-04T15:45:34.941Z,68.88
2023-10-04T15:48:12.927Z,68.86
2023-10-04T15:50:41.162Z,69.00
2023-10-04T15:53:10.822Z,69.03
2023-10-04T15:55:40.578Z,69.05
2023-10-04T15:58:08.979Z,69.12
2023-10-04T16:00:41.922Z,69.20
2023-10-04T16:03:16.696Z,69.21
2023-10-04T16:05:44.810Z,69.52
2023-10-04T16:08:12.994Z,69.65
2023-10-04T16:10:40.928Z,69.69
2023-10-04T16:13:09.399Z,69.50
2023-10-04T16:15:37.639Z,69.59
2023-10-04T16:18:07.285Z,69.65
2023-10-04T16:20:35.504Z,69.84
2023-10-04T16:23:04.174Z,69.97
2023-10-04T16:25:32.250Z,69.93
2023-10-04T16:28:00.289Z,70.14
2023-10-04T16:30:28.544Z,70.15
2023-10-04T16:32:58.596Z,70.37
2023-10-04T16:35:26.689Z,70.35
2023-10-04T16:37:55.330Z,70.35
2023-10-04T16:40:23.303Z,70.38
2023-10-04T16:42:51.555Z,70.53
2023-10-04T16:45:23.445Z,70.53
2023-10-04T16:47:51.668Z,70.81
2023-10-04T16:50:21.742Z,70.71
2023-10-04T16:52:53.486Z,71.14
2023-10-04T16:55:21.668Z,71.28
2023-10-04T16:57:50.326Z,71.09
2023-10-04T17:00:19.021Z,71.18
2023-10-04T17:02:48.862Z,71.32
2023-10-04T17:05:16.882Z,71.41
2023-10-04T17:07:44.997Z,71.76
2023-10-04T17:10:16.054Z,71.84
2023-10-04T17:12:43.929Z,71.68
2023-10-04T17:15:14.836Z,72.07
2023-10-04T17:17:44.647Z,72.19
2023-10-04T17:20:14.245Z,72.30
2023-10-04T17:22:43.218Z,72.20
2023-10-04T17:25:12.368Z,72.21
2023-10-04T17:27:40.840Z,72.15
2023-10-04T17:30:14.742Z,72.20
2023-10-04T17:32:42.925Z,72.35
2023-10-04T17:35:10.956Z,72.48
2023-10-04T17:37:38.924Z,72.56
2023-10-04T17:40:07.849Z,72.71
2023-10-04T17:42:35.721Z,72.49
2023-10-04T17:45:05.179Z,72.51
2023-10-04T17:47:33.967Z,72.73
2023-10-04T17:50:01.761Z,73.26
2023-10-04T17:52:29.656Z,73.17
2023-10-04T17:54:58.703Z,73.25
2023-10-04T17:57:27.539Z,73.19
2023-10-04T17:59:56.675Z,73.47
2023-10-04T18:02:24.810Z,73.16
2023-10-04T18:04:52.920Z,73.44
2023-10-04T18:07:21.157Z,73.42
2023-10-04T18:09:49.689Z,73.41
2023-10-04T18:12:18.801Z,73.58
2023-10-04T18:14:47.804Z,73.48
2023-10-04T18:17:18.676Z,73.96
2023-10-04T18:19:47.479Z,73.91
2023-10-04T18:22:15.618Z,73.71
2023-10-04T18:24:44.342Z,74.02
2023-10-04T18:27:12.135Z,74.04
2023-10-04T18:29:40.396Z,74.20
2023-10-04T18:32:09.257Z,74.42
2023-10-04T18:34:37.442Z,74.33
2023-10-04T18:37:05.530Z,74.50
2023-10-04T18:39:33.999Z,74.54
2023-10-04T18:42:02.160Z,74.67
2023-10-04T18:44:30.642Z,74.73
2023-10-04T18:46:58.886Z,74.59
2023-10-04T18:49:31.306Z,75.03
2023-10-04T18:52:07.937Z,75.04
2023-10-04T18:54:36.232Z,75.20
2023-10-04T18:57:06.503Z,75.25
2023-10-04T18:59:37.910Z,75.61
2023-10-04T19:02:06.086Z,75.39
2023-10-04T19:04:35.419Z,75.43
2023-10-04T19:07:03.909Z,75.66
2023-10-04T19:09:33.733Z,75.91
2023-10-04T19:12:01.755Z,76.01
2023-10-04T19:14:31.525Z,75.85
2023-10-04T19:16:59.632Z,76.03
2023-10-04T19:19:27.604Z,75.94
2023-10-04T19:21:55.993Z,75.80
2023-10-04T19:24:25.200Z,76.01
2023-10-04T19:26:56.724Z,76.15
2023-10-04T19:29:24.946Z,75.84
2023-10-04T19:31:53.065Z,76.06
2023-10-04T19:34:21.451Z,76.28
2023-10-04T19:36:50.468Z,75.96
2023-10-04T19:39:19.170Z,76.24
2023-10-04T19:41:47.292Z,76.15
2023-10-04T19:44:15.359Z,76.55
2023-10-04T19:46:43.352Z,76.27
2023-10-04T19:49:11.296Z,76.39
2023-10-04T19:51:39.342Z,76.34
2023-10-04T19:54:08.918Z,76.52
2023-10-04T19:56:36.792Z,76.59
2023-10-04T19:59:04.847Z,76.67
2023-10-04T20:01:34.025Z,76.82
2023-10-04T20:04:03.920Z,76.73
2023-10-04T20:06:32.505Z,77.01
2023-10-04T20:09:00.875Z,77.09
2023-10-04T20:11:30.913Z,76.86
2023-10-04T20:13:59.064Z,76.68
2023-10-04T20:16:27.897Z,77.24
2023-10-04T20:19:00.505Z,76.99
2023-10-04T20:21:28.856Z,76.96
2023-10-04T20:23:56.920Z,77.02
2023-10-04T20:26:26.000Z,77.03
2023-10-04T20:28:54.264Z,77.04
2023-10-04T20:31:25.742Z,77.15
2023-10-04T20:33:54.039Z,77.19
2023-10-04T20:36:23.841Z,77.45
2023-10-04T20:38:51.664Z,77.29
2023-10-04T20:41:19.564Z,77.51
2023-10-04T20:43:47.605Z,77.53
2023-10-04T20:46:16.981Z,77.34
2023-10-04T20:48:45.032Z,77.63
2023-10-04T20:51:12.829Z,77.45
2023-10-04T20:53:40.685Z,77.65
2023-10-04T20:56:08.929Z,77.54
2023-10-04T20:58:36.931Z,77.82
2023-10-04T21:01:06.562Z,77.81
2023-10-04T21:03:35.198Z,77.79
2023-10-04T21:06:03.637Z,78.00
2023-10-04T21:08:32.183Z,78.04
2023-10-04T21:11:00.156Z,78.18
2023-10-04T21:13:28.125Z,78.09
2023-10-04T21:15:56.142Z,78.23
2023-10-04T21:18:24.008Z,78.24
2023-10-04T21:20:52.332Z,77.93
2023-10-04T21:23:20.956Z,78.05
2023-10-04T21:25:50.170Z,78.38
2023-10-04T21:28:18.980Z,78.77
2023-10-04T21:30:54.203Z,78.87
2023-10-04T21:33:30.842Z,78.72
2023-10-04T21:36:06.568Z,78.67
2023-10-04T21:38:35.457Z,78.79
2023-10-04T21:41:09.487Z,78.72
2023-10-04T21:43:38.428Z,78.64
2023-10-04T21:46:10.675Z,78.72
2023-10-04T21:48:42.419Z,78.74
2023-10-04T21:51:15.967Z,78.72
2023-10-04T21:53:43.951Z,78.70
2023-10-04T21:56:12.032Z,78.80
2023-10-04T21:58:40.020Z,79.04
2023-10-04T22:01:16.226Z,78.95
2023-10-04T22:03:46.244Z,78.89
2023-10-04T22:06:18.450Z,78.92
2023-10-04T22:08:46.386Z,79.19
2023-10-04T22:11:15.120Z,78.79
2023-10-04T22:13:42.873Z,78.89
2023-10-04T22:16:11.750Z,78.91
2023-10-04T22:18:39.943Z,78.91
2023-10-04T22:21:09.381Z,79.11
2023-10-04T22:23:37.169Z,79.02
2023-10-04T22:26:05.500Z,79.16
2023-10-04T22:28:33.411Z,79.43
2023-10-04T22:31:01.428Z,79.50
2023-10-04T22:33:31.754Z,79.39
2023-10-04T22:35:59.698Z,79.42
2023-10-04T22:38:27.634Z,79.29
2023-10-04T22:40:55.405Z,79.38
2023-10-04T22:43:23.295Z,79.73
2023-10-04T22:45:53.205Z,79.44
2023-10-04T22:48:21.329Z,79.42
2023-10-04T22:50:51.120Z,79.46
2023-10-04T22:53:20.009Z,79.43
2023-10-04T22:55:47.982Z,79.10
2023-10-04T22:58:16.980Z,79.57
2023-10-04T23:00:46.941Z,79.67
2023-10-04T23:03:17.013Z,79.80
2023-10-04T23:05:54.824Z,79.88
2023-10-04T23:08:22.912Z,79.95
2023-10-04T23:10:50.881Z,80.03
2023-10-04T23:13:18.778Z,79.95
2023-10-04T23:15:48.153Z,80.00
2023-10-04T23:18:18.774Z,80.09
2023-10-04T23:20:49.461Z,80.42
2023-10-04T23:23:17.773Z,80.29
2023-10-04T23:25:49.988Z,79.97
2023-10-04T23:28:18.753Z,79.96
2023-10-04T23:30:48.385Z,80.47
2023-10-04T23:33:21.087Z,80.44
2023-10-04T23:35:59.959Z,80.47
2023-10-04T23:38:35.234Z,80.53
2023-10-04T23:41:13.957Z,80.29
2023-10-04T23:43:42.432Z,80.62
2023-10-04T23:46:30.065Z,80.94
2023-10-04T23:49:20.566Z,81.19
2023-10-04T23:51:50.409Z,80.97
2023-10-04T23:54:28.318Z,81.02
2023-10-04T23:56:56.232Z,81.17
2023-10-04T23:59:27.708Z,81.05
